Kezdőlap
METAR-TAF:

METAR-TAF

Repülőterek :

Harbin, Kína

földrajzi szélesség: 45-45N, földrajzi hosszúság: 126-46E, magasság: 143 m

Jelenlegi meteorológiai megfigyelések

A jelentés 1 órával és 0 perccel ezelõtt készült, 22:00 UTC
Déli szél 8 kt
Hőmérséklet 8°C
Páratartalom 81%
Légköri nyomás 1002 hPa
Látótávolság 10 km, vagy több
felhőtlen 1500 m magasságban, és nincs gomolyfelhõ

METAR: ZYHB 222200Z 19004MPS CAVOK 08/05 Q1002 NOSIG

Idő: 07:00 (23:00 UTC)

Előrejelzés

A jelentés 8 órával és 20 perccel ezelõtt készült, 14:40 UTC
Az előrejelzés 22-én 18 óra UTC és 23-én 18 óra UTC között érvényes
Dél-délnyugati szél 10 kt
Látótávolság: 6000 m
Szórványos felhőzet 2600 lábon

TAF: ZYHB 221440Z 2218/2318 21005MPS 6000 SCT026 TX20/2306Z TN05/2221Z

Meteorológiai megfigyelések és előrejelzések több, mint 4000 repülőtéren (METAR és TAF jelentéseket).

A térképen piros és sárga pontok jelzik az elérhető meteorológiai állomásokat.

Mozgassa az egeret a pont fölött, hogy megjelenjen az állomás neve.

Azután kattintson az időjárási megfigyelések és előrejelzések megtekintéséhez.

A térkép megváltoztatása: kattintson a fekete keresztel jelölt zöld gombra ráközelítéshez, a vonallal jelölt zöld gombra távolításhoz, vagy a zöld nyilakra a szomszédos térképek eléréséhez.


METAR-TAF: